sensor_id;sensor_type;location;lat;lon;timestamp;pressure;altitude;pressure_sealevel;temperature;humidity
73633;BME280;61927;50.080;14.418;2022-11-15T00:00:47;99599.75;;;4.59;84.90
73633;BME280;61927;50.080;14.418;2022-11-15T00:03:15;99599.06;;;4.53;85.62
73633;BME280;61927;50.080;14.418;2022-11-15T00:05:41;99607.06;;;4.50;85.77
73633;BME280;61927;50.080;14.418;2022-11-15T00:08:06;99604.53;;;4.47;85.46
73633;BME280;61927;50.080;14.418;2022-11-15T00:10:32;99596.75;;;4.44;85.62
73633;BME280;61927;50.080;14.418;2022-11-15T00:12:57;99591.50;;;4.44;85.69
73633;BME280;61927;50.080;14.418;2022-11-15T00:15:23;99595.84;;;4.45;85.92
73633;BME280;61927;50.080;14.418;2022-11-15T00:17:49;99602.22;;;4.38;85.23
73633;BME280;61927;50.080;14.418;2022-11-15T00:20:17;99595.25;;;4.37;85.98
73633;BME280;61927;50.080;14.418;2022-11-15T00:22:42;99599.59;;;4.38;86.63
73633;BME280;61927;50.080;14.418;2022-11-15T00:25:08;99598.91;;;4.33;86.26
73633;BME280;61927;50.080;14.418;2022-11-15T00:27:33;99600.72;;;4.31;86.85
73633;BME280;61927;50.080;14.418;2022-11-15T00:29:59;99609.50;;;4.30;87.11
73633;BME280;61927;50.080;14.418;2022-11-15T00:32:25;99605.97;;;4.31;86.88
73633;BME280;61927;50.080;14.418;2022-11-15T00:34:50;99605.72;;;4.39;86.63
73633;BME280;61927;50.080;14.418;2022-11-15T00:37:16;99605.75;;;4.37;87.46
73633;BME280;61927;50.080;14.418;2022-11-15T00:39:41;99609.25;;;4.38;86.99
73633;BME280;61927;50.080;14.418;2022-11-15T00:42:07;99608.22;;;4.42;86.85
73633;BME280;61927;50.080;14.418;2022-11-15T00:44:32;99610.81;;;4.43;86.88
73633;BME280;61927;50.080;14.418;2022-11-15T00:46:58;99603.78;;;4.44;86.16
73633;BME280;61927;50.080;14.418;2022-11-15T00:49:23;99603.78;;;4.44;86.28
73633;BME280;61927;50.080;14.418;2022-11-15T00:51:49;99597.50;;;4.48;86.11
73633;BME280;61927;50.080;14.418;2022-11-15T00:54:14;99601.84;;;4.49;86.27
73633;BME280;61927;50.080;14.418;2022-11-15T00:56:40;99593.06;;;4.50;85.35
73633;BME280;61927;50.080;14.418;2022-11-15T00:59:06;99598.31;;;4.50;86.20
73633;BME280;61927;50.080;14.418;2022-11-15T01:01:31;99589.63;;;4.48;86.22
73633;BME280;61927;50.080;14.418;2022-11-15T01:03:57;99597.47;;;4.49;85.85
73633;BME280;61927;50.080;14.418;2022-11-15T01:06:22;99595.75;;;4.48;86.28
73633;BME280;61927;50.080;14.418;2022-11-15T01:08:48;99581.75;;;4.48;86.14
73633;BME280;61927;50.080;14.418;2022-11-15T01:11:13;99593.97;;;4.49;86.17
73633;BME280;61927;50.080;14.418;2022-11-15T01:13:39;99585.34;;;4.45;86.17
73633;BME280;61927;50.080;14.418;2022-11-15T01:16:13;99579.16;;;4.46;87.24
73633;BME280;61927;50.080;14.418;2022-11-15T01:18:39;99579.88;;;4.51;86.68
73633;BME280;61927;50.080;14.418;2022-11-15T01:21:09;99581.41;;;4.57;87.29
73633;BME280;61927;50.080;14.418;2022-11-15T01:23:36;99584.63;;;4.65;86.34
73633;BME280;61927;50.080;14.418;2022-11-15T01:26:03;99577.50;;;4.69;86.66
73633;BME280;61927;50.080;14.418;2022-11-15T01:28:31;99583.63;;;4.69;86.95
73633;BME280;61927;50.080;14.418;2022-11-15T01:31:01;99579.22;;;4.70;86.92
73633;BME280;61927;50.080;14.418;2022-11-15T01:33:28;99591.50;;;4.69;87.37
73633;BME280;61927;50.080;14.418;2022-11-15T01:35:54;99577.44;;;4.70;86.96
73633;BME280;61927;50.080;14.418;2022-11-15T01:38:21;99579.91;;;4.75;86.35
73633;BME280;61927;50.080;14.418;2022-11-15T01:40:46;99579.91;;;4.75;85.58
73633;BME280;61927;50.080;14.418;2022-11-15T01:43:22;99574.47;;;4.79;85.32
73633;BME280;61927;50.080;14.418;2022-11-15T01:45:52;99575.28;;;4.81;84.87
73633;BME280;61927;50.080;14.418;2022-11-15T01:48:20;99567.34;;;4.83;84.40
73633;BME280;61927;50.080;14.418;2022-11-15T01:50:47;99562.16;;;4.81;84.17
73633;BME280;61927;50.080;14.418;2022-11-15T01:53:14;99569.13;;;4.82;84.65
73633;BME280;61927;50.080;14.418;2022-11-15T01:55:40;99567.47;;;4.80;84.23
73633;BME280;61927;50.080;14.418;2022-11-15T01:58:06;99569.13;;;4.82;85.27
73633;BME280;61927;50.080;14.418;2022-11-15T02:00:33;99569.06;;;4.84;85.66
73633;BME280;61927;50.080;14.418;2022-11-15T02:02:58;99567.13;;;4.89;85.17
73633;BME280;61927;50.080;14.418;2022-11-15T02:05:24;99558.88;;;4.98;84.01
73633;BME280;61927;50.080;14.418;2022-11-15T02:07:50;99568.72;;;4.93;85.00
73633;BME280;61927;50.080;14.418;2022-11-15T02:10:22;99562.38;;;4.99;85.58
73633;BME280;61927;50.080;14.418;2022-11-15T02:12:48;99556.16;;;5.01;84.82
73633;BME280;61927;50.080;14.418;2022-11-15T02:15:14;99559.81;;;4.97;85.40
73633;BME280;61927;50.080;14.418;2022-11-15T02:18:04;99550.09;;;4.99;85.78
73633;BME280;61927;50.080;14.418;2022-11-15T02:20:42;99552.59;;;5.02;85.20
73633;BME280;61927;50.080;14.418;2022-11-15T02:28:59;99550.72;;;5.06;84.71
73633;BME280;61927;50.080;14.418;2022-11-15T02:31:48;99548.94;;;5.06;84.94
73633;BME280;61927;50.080;14.418;2022-11-15T02:34:28;99545.44;;;5.06;83.95
73633;BME280;61927;50.080;14.418;2022-11-15T02:37:09;99548.13;;;5.04;83.77
73633;BME280;61927;50.080;14.418;2022-11-15T02:39:44;99550.09;;;4.99;84.47
73633;BME280;61927;50.080;14.418;2022-11-15T02:42:21;99546.44;;;5.03;84.44
73633;BME280;61927;50.080;14.418;2022-11-15T02:45:09;99540.94;;;5.09;83.14
73633;BME280;61927;50.080;14.418;2022-11-15T02:47:43;99542.34;;;5.18;83.25
73633;BME280;61927;50.080;14.418;2022-11-15T02:50:15;99548.81;;;5.09;83.10
73633;BME280;61927;50.080;14.418;2022-11-15T02:52:45;99546.44;;;5.03;83.84
73633;BME280;61927;50.080;14.418;2022-11-15T03:00:31;99541.84;;;5.08;83.20
73633;BME280;61927;50.080;14.418;2022-11-15T03:11:38;99525.84;;;4.91;84.12
73633;BME280;61927;50.080;14.418;2022-11-15T03:16:51;99520.19;;;4.78;84.35
73633;BME280;61927;50.080;14.418;2022-11-15T03:19:42;99526.47;;;4.74;84.35
73633;BME280;61927;50.080;14.418;2022-11-15T03:22:12;99517.72;;;4.74;85.37
73633;BME280;61927;50.080;14.418;2022-11-15T03:24:40;99517.56;;;4.78;85.36
73633;BME280;61927;50.080;14.418;2022-11-15T03:27:09;99520.88;;;4.83;84.32
73633;BME280;61927;50.080;14.418;2022-11-15T03:29:39;99518.13;;;4.86;84.39
73633;BME280;61927;50.080;14.418;2022-11-15T03:32:11;99511.91;;;4.89;84.59
73633;BME280;61927;50.080;14.418;2022-11-15T03:34:41;99513.63;;;4.90;84.25
73633;BME280;61927;50.080;14.418;2022-11-15T03:37:12;99508.41;;;4.89;84.62
73633;BME280;61927;50.080;14.418;2022-11-15T03:39:39;99512.19;;;4.81;84.53
73633;BME280;61927;50.080;14.418;2022-11-15T03:42:20;99501.09;;;4.73;84.22
73633;BME280;61927;50.080;14.418;2022-11-15T03:45:06;99506.31;;;4.75;85.70
73633;BME280;61927;50.080;14.418;2022-11-15T03:47:40;99501.84;;;4.77;85.05
73633;BME280;61927;50.080;14.418;2022-11-15T03:50:12;99493.00;;;4.79;85.60
73633;BME280;61927;50.080;14.418;2022-11-15T03:52:40;99491.03;;;4.84;86.09
73633;BME280;61927;50.080;14.418;2022-11-15T03:55:09;99486.59;;;4.86;85.42
73633;BME280;61927;50.080;14.418;2022-11-15T03:57:35;99497.03;;;4.88;85.26
73633;BME280;61927;50.080;14.418;2022-11-15T04:00:02;99497.16;;;4.85;84.83
73633;BME280;61927;50.080;14.418;2022-11-15T04:02:28;99493.72;;;4.83;85.09
73633;BME280;61927;50.080;14.418;2022-11-15T04:04:54;99494.75;;;4.79;85.34
73633;BME280;61927;50.080;14.418;2022-11-15T04:07:19;99487.09;;;4.73;85.41
73633;BME280;61927;50.080;14.418;2022-11-15T04:09:45;99487.72;;;4.79;85.85
73633;BME280;61927;50.080;14.418;2022-11-15T04:12:30;99490.41;;;4.78;85.96
73633;BME280;61927;50.080;14.418;2022-11-15T04:15:10;99481.97;;;4.70;86.34
73633;BME280;61927;50.080;14.418;2022-11-15T04:17:42;99477.69;;;4.67;86.00
73633;BME280;61927;50.080;14.418;2022-11-15T04:20:17;99479.34;;;4.70;86.75
73633;BME280;61927;50.080;14.418;2022-11-15T04:23:04;99477.50;;;4.72;86.39
73633;BME280;61927;50.080;14.418;2022-11-15T04:25:52;99473.06;;;4.74;86.52
73633;BME280;61927;50.080;14.418;2022-11-15T04:28:19;99480.06;;;4.73;85.99
73633;BME280;61927;50.080;14.418;2022-11-15T04:30:45;99481.09;;;4.69;85.76
73633;BME280;61927;50.080;14.418;2022-11-15T04:33:11;99475.97;;;4.66;86.29
73633;BME280;61927;50.080;14.418;2022-11-15T04:35:36;99483.00;;;4.66;86.28
73633;BME280;61927;50.080;14.418;2022-11-15T04:38:04;99487.28;;;4.68;86.53
73633;BME280;61927;50.080;14.418;2022-11-15T04:40:29;99493.16;;;4.75;86.76
73633;BME280;61927;50.080;14.418;2022-11-15T04:42:55;99488.53;;;4.81;86.21
73633;BME280;61927;50.080;14.418;2022-11-15T04:45:21;99488.25;;;4.89;86.19
73633;BME280;61927;50.080;14.418;2022-11-15T04:47:47;99496.34;;;4.83;85.62
73633;BME280;61927;50.080;14.418;2022-11-15T04:50:13;99485.16;;;4.78;85.27
73633;BME280;61927;50.080;14.418;2022-11-15T04:52:50;99477.50;;;4.72;85.43
73633;BME280;61927;50.080;14.418;2022-11-15T04:55:16;99481.84;;;4.73;85.31
73633;BME280;61927;50.080;14.418;2022-11-15T04:57:42;99484.47;;;4.73;85.34
73633;BME280;61927;50.080;14.418;2022-11-15T05:00:11;99489.78;;;4.71;85.18
73633;BME280;61927;50.080;14.418;2022-11-15T05:02:37;99487.00;;;4.76;84.17
73633;BME280;61927;50.080;14.418;2022-11-15T05:05:21;99485.16;;;4.78;84.54
73633;BME280;61927;50.080;14.418;2022-11-15T05:07:47;99481.72;;;4.76;84.55
73633;BME280;61927;50.080;14.418;2022-11-15T05:10:12;99482.59;;;4.76;84.64
73633;BME280;61927;50.080;14.418;2022-11-15T05:12:38;99484.38;;;4.76;85.41
73633;BME280;61927;50.080;14.418;2022-11-15T05:15:04;99484.31;;;4.77;85.60
73633;BME280;61927;50.080;14.418;2022-11-15T05:17:30;99473.72;;;4.79;85.27
73633;BME280;61927;50.080;14.418;2022-11-15T05:19:55;99480.69;;;4.80;85.75
73633;BME280;61927;50.080;14.418;2022-11-15T05:22:21;99481.50;;;4.82;85.05
73633;BME280;61927;50.080;14.418;2022-11-15T05:24:47;99482.41;;;4.81;85.06
73633;BME280;61927;50.080;14.418;2022-11-15T05:27:13;99479.84;;;4.79;84.96
73633;BME280;61927;50.080;14.418;2022-11-15T05:29:38;99472.81;;;4.80;84.56
73633;BME280;61927;50.080;14.418;2022-11-15T05:32:06;99472.13;;;4.75;84.10
73633;BME280;61927;50.080;14.418;2022-11-15T05:34:31;99469.44;;;4.76;83.95
73633;BME280;61927;50.080;14.418;2022-11-15T05:36:57;99471.72;;;4.85;83.77
73633;BME280;61927;50.080;14.418;2022-11-15T05:39:23;99471.91;;;4.81;84.52
73633;BME280;61927;50.080;14.418;2022-11-15T05:41:59;99467.31;;;4.86;83.33
73633;BME280;61927;50.080;14.418;2022-11-15T05:44:26;99455.91;;;4.87;83.58
73633;BME280;61927;50.080;14.418;2022-11-15T05:46:53;99445.13;;;4.93;83.21
73633;BME280;61927;50.080;14.418;2022-11-15T05:49:22;99451.38;;;4.91;83.12
73633;BME280;61927;50.080;14.418;2022-11-15T05:51:49;99460.00;;;4.94;83.49
73633;BME280;61927;50.080;14.418;2022-11-15T05:54:17;99463.50;;;4.95;83.09
73633;BME280;61927;50.080;14.418;2022-11-15T05:56:44;99450.97;;;5.01;82.62
73633;BME280;61927;50.080;14.418;2022-11-15T05:59:10;99450.09;;;5.01;82.91
73633;BME280;61927;50.080;14.418;2022-11-15T06:01:37;99455.41;;;4.99;82.52
73633;BME280;61927;50.080;14.418;2022-11-15T06:04:03;99451.88;;;5.00;83.26
73633;BME280;61927;50.080;14.418;2022-11-15T06:06:29;99465.63;;;5.07;83.18
73633;BME280;61927;50.080;14.418;2022-11-15T06:08:54;99465.81;;;5.02;82.62
73633;BME280;61927;50.080;14.418;2022-11-15T06:11:20;99458.09;;;4.98;83.46
73633;BME280;61927;50.080;14.418;2022-11-15T06:13:45;99470.41;;;4.97;84.02
73633;BME280;61927;50.080;14.418;2022-11-15T06:16:11;99472.41;;;4.91;83.41
73633;BME280;61927;50.080;14.418;2022-11-15T06:18:37;99480.53;;;4.84;83.53
73633;BME280;61927;50.080;14.418;2022-11-15T06:21:03;99478.59;;;4.90;83.71
73633;BME280;61927;50.080;14.418;2022-11-15T06:23:32;99483.84;;;4.90;83.29
73633;BME280;61927;50.080;14.418;2022-11-15T06:25:58;99479.44;;;4.90;84.11
73633;BME280;61927;50.080;14.418;2022-11-15T06:28:24;99480.53;;;4.84;84.50
73633;BME280;61927;50.080;14.418;2022-11-15T06:30:50;99477.66;;;4.91;84.05
73633;BME280;61927;50.080;14.418;2022-11-15T06:33:15;99469.72;;;4.92;84.32
73633;BME280;61927;50.080;14.418;2022-11-15T06:35:41;99465.19;;;4.96;84.30
73633;BME280;61927;50.080;14.418;2022-11-15T06:38:08;99468.28;;;5.07;84.27
73633;BME280;61927;50.080;14.418;2022-11-15T06:40:37;99463.69;;;5.12;84.01
73633;BME280;61927;50.080;14.418;2022-11-15T06:43:04;99464.41;;;5.15;84.26
73633;BME280;61927;50.080;14.418;2022-11-15T06:45:30;99460.81;;;5.18;84.16
73633;BME280;61927;50.080;14.418;2022-11-15T06:47:56;99461.72;;;5.17;83.96
73633;BME280;61927;50.080;14.418;2022-11-15T06:50:22;99458.47;;;5.10;83.50
73633;BME280;61927;50.080;14.418;2022-11-15T06:52:48;99463.88;;;5.07;83.40
73633;BME280;61927;50.080;14.418;2022-11-15T06:55:14;99466.50;;;5.07;83.55
73633;BME280;61927;50.080;14.418;2022-11-15T06:57:49;99478.16;;;5.00;83.70
73633;BME280;61927;50.080;14.418;2022-11-15T07:00:17;99475.66;;;4.97;83.56
73633;BME280;61927;50.080;14.418;2022-11-15T07:02:43;99468.38;;;5.04;83.67
73633;BME280;61927;50.080;14.418;2022-11-15T07:05:09;99463.75;;;5.10;82.95
73633;BME280;61927;50.080;14.418;2022-11-15T07:07:35;99467.28;;;5.09;83.13
73633;BME280;61927;50.080;14.418;2022-11-15T07:10:01;99473.66;;;5.04;83.77
73633;BME280;61927;50.080;14.418;2022-11-15T07:12:26;99470.09;;;5.05;83.40
73633;BME280;61927;50.080;14.418;2022-11-15T07:14:52;99484.00;;;5.08;83.13
73633;BME280;61927;50.080;14.418;2022-11-15T07:17:17;99480.56;;;5.06;83.83
73633;BME280;61927;50.080;14.418;2022-11-15T07:19:43;99472.66;;;5.06;83.59
73633;BME280;61927;50.080;14.418;2022-11-15T07:22:08;99465.56;;;5.08;83.08
73633;BME280;61927;50.080;14.418;2022-11-15T07:24:34;99469.69;;;5.15;82.92
73633;BME280;61927;50.080;14.418;2022-11-15T07:27:00;99463.19;;;5.24;82.26
73633;BME280;61927;50.080;14.418;2022-11-15T07:29:25;99466.44;;;5.31;82.43
73633;BME280;61927;50.080;14.418;2022-11-15T07:31:51;99469.00;;;5.32;82.26
73633;BME280;61927;50.080;14.418;2022-11-15T07:34:17;99471.88;;;5.26;81.99
73633;BME280;61927;50.080;14.418;2022-11-15T07:36:42;99469.94;;;5.31;82.41
73633;BME280;61927;50.080;14.418;2022-11-15T07:39:08;99475.91;;;5.35;82.82
73633;BME280;61927;50.080;14.418;2022-11-15T07:41:34;99475.25;;;5.30;81.73
73633;BME280;61927;50.080;14.418;2022-11-15T07:44:00;99469.25;;;5.26;82.51
73633;BME280;61927;50.080;14.418;2022-11-15T07:46:27;99463.63;;;5.35;82.39
73633;BME280;61927;50.080;14.418;2022-11-15T07:48:52;99466.13;;;5.38;82.60
73633;BME280;61927;50.080;14.418;2022-11-15T07:51:19;99466.06;;;5.40;81.56
73633;BME280;61927;50.080;14.418;2022-11-15T07:53:45;99479.34;;;5.37;81.31
73633;BME280;61927;50.080;14.418;2022-11-15T07:56:11;99471.75;;;5.29;81.83
73633;BME280;61927;50.080;14.418;2022-11-15T07:58:37;99467.66;;;5.22;82.51
73633;BME280;61927;50.080;14.418;2022-11-15T08:01:04;99463.13;;;5.26;82.08
73633;BME280;61927;50.080;14.418;2022-11-15T08:03:30;99461.38;;;5.26;81.90
73633;BME280;61927;50.080;14.418;2022-11-15T08:05:56;99461.28;;;5.28;81.93
73633;BME280;61927;50.080;14.418;2022-11-15T08:08:21;99457.88;;;5.26;82.13
73633;BME280;61927;50.080;14.418;2022-11-15T08:10:47;99465.53;;;5.32;82.44
73633;BME280;61927;50.080;14.418;2022-11-15T08:13:13;99465.47;;;5.33;82.05
73633;BME280;61927;50.080;14.418;2022-11-15T08:15:39;99462.41;;;5.44;81.91
73633;BME280;61927;50.080;14.418;2022-11-15T08:18:11;99464.84;;;5.48;81.51
73633;BME280;61927;50.080;14.418;2022-11-15T08:20:37;99464.53;;;5.56;81.31
73633;BME280;61927;50.080;14.418;2022-11-15T08:23:04;99454.13;;;5.53;81.04
73633;BME280;61927;50.080;14.418;2022-11-15T08:25:31;99452.69;;;5.66;81.06
73633;BME280;61927;50.080;14.418;2022-11-15T08:27:59;99453.47;;;5.68;80.77
73633;BME280;61927;50.080;14.418;2022-11-15T08:30:26;99455.44;;;5.63;80.21
73633;BME280;61927;50.080;14.418;2022-11-15T08:32:52;99458.16;;;5.62;81.12
73633;BME280;61927;50.080;14.418;2022-11-15T08:35:19;99459.91;;;5.61;81.08
73633;BME280;61927;50.080;14.418;2022-11-15T08:37:45;99451.09;;;5.62;80.65
73633;BME280;61927;50.080;14.418;2022-11-15T08:40:11;99450.06;;;5.66;81.10
73633;BME280;61927;50.080;14.418;2022-11-15T08:42:37;99440.50;;;5.64;81.27
73633;BME280;61927;50.080;14.418;2022-11-15T08:45:03;99439.34;;;5.71;80.02
73633;BME280;61927;50.080;14.418;2022-11-15T08:47:29;99436.78;;;5.69;80.62
73633;BME280;61927;50.080;14.418;2022-11-15T08:49:54;99439.78;;;5.60;81.06
73633;BME280;61927;50.080;14.418;2022-11-15T08:52:20;99439.97;;;5.56;81.36
73633;BME280;61927;50.080;14.418;2022-11-15T08:54:46;99434.53;;;5.60;81.59
73633;BME280;61927;50.080;14.418;2022-11-15T08:57:12;99441.91;;;5.72;81.39
73633;BME280;61927;50.080;14.418;2022-11-15T08:59:38;99440.84;;;5.76;80.95
73633;BME280;61927;50.080;14.418;2022-11-15T09:02:04;99440.59;;;5.82;80.08
73633;BME280;61927;50.080;14.418;2022-11-15T09:04:31;99440.41;;;5.87;80.41
73633;BME280;61927;50.080;14.418;2022-11-15T09:06:57;99433.25;;;5.91;80.88
73633;BME280;61927;50.080;14.418;2022-11-15T09:09:22;99432.44;;;5.89;80.72
73633;BME280;61927;50.080;14.418;2022-11-15T09:11:48;99433.19;;;5.92;80.31
73633;BME280;61927;50.080;14.418;2022-11-15T09:14:14;99433.91;;;5.96;80.50
73633;BME280;61927;50.080;14.418;2022-11-15T09:16:40;99432.06;;;5.98;80.45
73633;BME280;61927;50.080;14.418;2022-11-15T09:19:06;99432.06;;;5.98;80.91
73633;BME280;61927;50.080;14.418;2022-11-15T09:21:32;99430.16;;;6.01;80.00
73633;BME280;61927;50.080;14.418;2022-11-15T09:23:58;99428.63;;;5.96;80.16
73633;BME280;61927;50.080;14.418;2022-11-15T09:26:24;99420.75;;;5.96;80.38
73633;BME280;61927;50.080;14.418;2022-11-15T09:28:49;99420.25;;;5.86;81.35
73633;BME280;61927;50.080;14.418;2022-11-15T09:31:15;99417.69;;;5.84;80.43
73633;BME280;61927;50.080;14.418;2022-11-15T09:33:43;99421.38;;;5.80;80.81
73633;BME280;61927;50.080;14.418;2022-11-15T09:36:10;99420.50;;;5.80;80.57
73633;BME280;61927;50.080;14.418;2022-11-15T09:38:36;99421.56;;;5.76;80.82
73633;BME280;61927;50.080;14.418;2022-11-15T09:49:19;99416.81;;;5.84;80.19
73633;BME280;61927;50.080;14.418;2022-11-15T09:51:48;99427.44;;;5.82;80.59
73633;BME280;61927;50.080;14.418;2022-11-15T09:54:35;99429.13;;;5.83;80.14
73633;BME280;61927;50.080;14.418;2022-11-15T09:57:14;99418.47;;;5.87;79.49
73633;BME280;61927;50.080;14.418;2022-11-15T10:02:46;99411.66;;;6.03;80.11
73633;BME280;61927;50.080;14.418;2022-11-15T10:05:11;99408.69;;;6.10;79.36
73633;BME280;61927;50.080;14.418;2022-11-15T10:07:48;99408.59;;;6.12;79.15
73633;BME280;61927;50.080;14.418;2022-11-15T10:10:29;99413.09;;;6.10;78.80
73633;BME280;61927;50.080;14.418;2022-11-15T10:12:58;99413.03;;;6.11;79.39
73633;BME280;61927;50.080;14.418;2022-11-15T10:15:24;99407.88;;;6.08;78.81
73633;BME280;61927;50.080;14.418;2022-11-15T10:20:28;99395.69;;;6.26;78.00
73633;BME280;61927;50.080;14.418;2022-11-15T10:22:58;99392.47;;;6.20;78.00
73633;BME280;61927;50.080;14.418;2022-11-15T10:25:30;99394.66;;;6.10;78.41
73633;BME280;61927;50.080;14.418;2022-11-15T10:27:59;99393.59;;;6.14;78.39
73633;BME280;61927;50.080;14.418;2022-11-15T10:30:53;99387.78;;;6.26;78.07
73633;BME280;61927;50.080;14.418;2022-11-15T10:33:33;99386.19;;;6.22;78.03
73633;BME280;61927;50.080;14.418;2022-11-15T10:39:00;99376.66;;;6.20;78.44
73633;BME280;61927;50.080;14.418;2022-11-15T10:41:32;99382.50;;;6.26;78.79
73633;BME280;61927;50.080;14.418;2022-11-15T10:46:32;99373.53;;;6.30;77.65
73633;BME280;61927;50.080;14.418;2022-11-15T10:51:45;99368.69;;;6.21;78.43
73633;BME280;61927;50.080;14.418;2022-11-15T10:54:14;99367.75;;;6.22;78.33
73633;BME280;61927;50.080;14.418;2022-11-15T10:56:49;99359.13;;;6.19;78.11
73633;BME280;61927;50.080;14.418;2022-11-15T10:59:21;99360.72;;;6.23;78.57
73633;BME280;61927;50.080;14.418;2022-11-15T11:01:48;99348.53;;;6.20;78.05
73633;BME280;61927;50.080;14.418;2022-11-15T11:04:14;99342.19;;;6.24;78.11
73633;BME280;61927;50.080;14.418;2022-11-15T11:06:54;99339.19;;;6.32;77.83
73633;BME280;61927;50.080;14.418;2022-11-15T11:11:58;99330.66;;;6.27;77.81
73633;BME280;61927;50.080;14.418;2022-11-15T11:14:25;99333.94;;;6.32;77.48
73633;BME280;61927;50.080;14.418;2022-11-15T11:16:55;99335.63;;;6.33;77.02
73633;BME280;61927;50.080;14.418;2022-11-15T11:20:25;99336.63;;;6.30;77.04
73633;BME280;61927;50.080;14.418;2022-11-15T11:22:42;99329.16;;;6.21;76.77
73633;BME280;61927;50.080;14.418;2022-11-15T11:30:24;99324.53;;;5.87;78.17
73633;BME280;61927;50.080;14.418;2022-11-15T11:41:08;99316.13;;;5.99;78.57
73633;BME280;61927;50.080;14.418;2022-11-15T11:46:30;99301.38;;;6.14;78.69
73633;BME280;61927;50.080;14.418;2022-11-15T11:49:04;99294.34;;;6.14;79.04
73633;BME280;61927;50.080;14.418;2022-11-15T11:51:39;99295.25;;;6.13;79.07
73633;BME280;61927;50.080;14.418;2022-11-15T11:54:19;99283.88;;;6.13;79.08
73633;BME280;61927;50.080;14.418;2022-11-15T11:56:47;99281.09;;;6.16;78.88
73633;BME280;61927;50.080;14.418;2022-11-15T12:02:18;99275.41;;;6.25;78.67
73633;BME280;61927;50.080;14.418;2022-11-15T12:04:51;99275.81;;;6.35;78.03
73633;BME280;61927;50.080;14.418;2022-11-15T12:07:24;99269.84;;;6.31;77.90
73633;BME280;61927;50.080;14.418;2022-11-15T12:14:55;99269.13;;;6.28;77.78
73633;BME280;61927;50.080;14.418;2022-11-15T12:17:27;99262.00;;;6.11;77.61
73633;BME280;61927;50.080;14.418;2022-11-15T12:19:58;99257.88;;;6.05;78.67
73633;BME280;61927;50.080;14.418;2022-11-15T12:22:36;99253.97;;;6.14;78.64
73633;BME280;61927;50.080;14.418;2022-11-15T12:25:08;99252.19;;;6.14;77.58
73633;BME280;61927;50.080;14.418;2022-11-15T12:28:01;99247.69;;;6.17;77.65
73633;BME280;61927;50.080;14.418;2022-11-15T12:30:40;99252.75;;;6.21;77.81
73633;BME280;61927;50.080;14.418;2022-11-15T12:33:42;99243.84;;;6.24;77.47
73633;BME280;61927;50.080;14.418;2022-11-15T12:36:34;99239.78;;;6.17;77.39
73633;BME280;61927;50.080;14.418;2022-11-15T12:38:58;99234.81;;;6.10;77.69
73633;BME280;61927;50.080;14.418;2022-11-15T12:41:29;99226.13;;;5.90;77.86
73633;BME280;61927;50.080;14.418;2022-11-15T12:43:56;99227.91;;;5.89;78.31
73633;BME280;61927;50.080;14.418;2022-11-15T12:49:09;99218.03;;;5.94;77.41
73633;BME280;61927;50.080;14.418;2022-11-15T13:02:36;99191.88;;;6.08;77.33
73633;BME280;61927;50.080;14.418;2022-11-15T13:17:54;99197.63;;;6.35;76.26
73633;BME280;61927;50.080;14.418;2022-11-15T13:20:29;99196.06;;;6.31;76.84
73633;BME280;61927;50.080;14.418;2022-11-15T13:28:45;99189.75;;;6.17;77.86
73633;BME280;61927;50.080;14.418;2022-11-15T13:33:58;99185.25;;;6.19;76.29
73633;BME280;61927;50.080;14.418;2022-11-15T13:36:30;99185.47;;;6.14;77.32
73633;BME280;61927;50.080;14.418;2022-11-15T13:39:25;99178.34;;;6.16;77.12
73633;BME280;61927;50.080;14.418;2022-11-15T13:41:48;99176.72;;;6.13;77.80
73633;BME280;61927;50.080;14.418;2022-11-15T13:44:26;99175.56;;;6.19;77.17
73633;BME280;61927;50.080;14.418;2022-11-15T13:47:04;99171.09;;;6.21;77.39
73633;BME280;61927;50.080;14.418;2022-11-15T13:49:32;99180.47;;;6.27;77.30
73633;BME280;61927;50.080;14.418;2022-11-15T13:52:00;99173.34;;;6.29;76.99
73633;BME280;61927;50.080;14.418;2022-11-15T13:54:30;99170.06;;;6.24;77.56
73633;BME280;61927;50.080;14.418;2022-11-15T13:57:21;99170.31;;;6.19;77.35
73633;BME280;61927;50.080;14.418;2022-11-15T13:59:48;99164.56;;;6.11;77.37
73633;BME280;61927;50.080;14.418;2022-11-15T14:02:26;99155.16;;;6.05;77.47
73633;BME280;61927;50.080;14.418;2022-11-15T14:05:02;99161.34;;;6.04;77.64
73633;BME280;61927;50.080;14.418;2022-11-15T14:07:30;99155.22;;;6.04;77.94
73633;BME280;61927;50.080;14.418;2022-11-15T14:09:56;99151.19;;;5.97;77.76
73633;BME280;61927;50.080;14.418;2022-11-15T14:15:30;99134.53;;;5.77;78.42
73633;BME280;61927;50.080;14.418;2022-11-15T14:17:43;99126.34;;;5.83;79.18
73633;BME280;61927;50.080;14.418;2022-11-15T14:20:38;99130.41;;;5.91;78.79
73633;BME280;61927;50.080;14.418;2022-11-15T14:23:19;99138.38;;;5.89;77.94
73633;BME280;61927;50.080;14.418;2022-11-15T14:25:56;99131.81;;;5.79;78.60
73633;BME280;61927;50.080;14.418;2022-11-15T14:30:48;99138.09;;;5.76;79.43
73633;BME280;61927;50.080;14.418;2022-11-15T14:33:22;99131.91;;;5.77;79.12
73633;BME280;61927;50.080;14.418;2022-11-15T14:35:48;99137.00;;;5.80;79.39
73633;BME280;61927;50.080;14.418;2022-11-15T14:38:14;99133.03;;;5.91;79.20
73633;BME280;61927;50.080;14.418;2022-11-15T14:40:41;99131.81;;;5.98;78.66
73633;BME280;61927;50.080;14.418;2022-11-15T14:43:09;99126.88;;;6.09;78.03
73633;BME280;61927;50.080;14.418;2022-11-15T14:45:35;99123.41;;;6.08;77.89
73633;BME280;61927;50.080;14.418;2022-11-15T14:48:01;99118.44;;;6.02;78.22
73633;BME280;61927;50.080;14.418;2022-11-15T14:50:26;99117.66;;;6.00;78.61
73633;BME280;61927;50.080;14.418;2022-11-15T14:52:53;99119.75;;;6.11;78.64
73633;BME280;61927;50.080;14.418;2022-11-15T14:55:32;99115.44;;;6.10;77.88
73633;BME280;61927;50.080;14.418;2022-11-15T14:58:02;99105.13;;;6.05;78.24
73633;BME280;61927;50.080;14.418;2022-11-15T15:00:30;99104.13;;;6.08;77.98
73633;BME280;61927;50.080;14.418;2022-11-15T15:02:56;99105.91;;;6.07;78.25